sensor_id;sensor_type;location;lat;lon;timestamp;P1;durP1;ratioP1;P2;durP2;ratioP2
50281;SDS011;36176;51.506;10.272;2023-11-19T00:01:35;2.43;;;2.23;;
50281;SDS011;36176;51.506;10.272;2023-11-19T00:04:02;3.80;;;2.50;;
50281;SDS011;36176;51.506;10.272;2023-11-19T00:06:29;2.10;;;2.00;;
50281;SDS011;36176;51.506;10.272;2023-11-19T00:08:57;2.13;;;2.03;;
50281;SDS011;36176;51.506;10.272;2023-11-19T00:11:24;2.10;;;2.00;;
50281;SDS011;36176;51.506;10.272;2023-11-19T00:13:51;2.70;;;2.50;;
50281;SDS011;36176;51.506;10.272;2023-11-19T00:16:18;2.80;;;2.60;;
50281;SDS011;36176;51.506;10.272;2023-11-19T00:42:12;1.90;;;1.80;;
50281;SDS011;36176;51.506;10.272;2023-11-19T00:45:34;1.70;;;1.60;;
50281;SDS011;36176;51.506;10.272;2023-11-19T00:56:43;1.70;;;1.60;;
50281;SDS011;36176;51.506;10.272;2023-11-19T00:59:58;1.50;;;1.40;;
50281;SDS011;36176;51.506;10.272;2023-11-19T01:04:00;1.93;;;1.40;;
50281;SDS011;36176;51.506;10.272;2023-11-19T01:07:41;1.57;;;1.47;;
50281;SDS011;36176;51.506;10.272;2023-11-19T01:14:49;1.70;;;1.60;;
50281;SDS011;36176;51.506;10.272;2023-11-19T05:59:50;1.30;;;1.20;;
50281;SDS011;36176;51.506;10.272;2023-11-19T06:02:18;1.13;;;1.10;;
50281;SDS011;36176;51.506;10.272;2023-11-19T06:04:45;2.13;;;1.30;;
50281;SDS011;36176;51.506;10.272;2023-11-19T06:07:12;1.60;;;1.50;;
50281;SDS011;36176;51.506;10.272;2023-11-19T06:09:39;2.70;;;1.70;;
50281;SDS011;36176;51.506;10.272;2023-11-19T06:12:06;1.50;;;1.40;;
50281;SDS011;36176;51.506;10.272;2023-11-19T06:14:34;2.00;;;1.67;;
50281;SDS011;36176;51.506;10.272;2023-11-19T06:17:01;2.07;;;1.43;;
50281;SDS011;36176;51.506;10.272;2023-11-19T06:19:28;1.93;;;1.50;;
50281;SDS011;36176;51.506;10.272;2023-11-19T06:21:57;1.70;;;1.60;;
50281;SDS011;36176;51.506;10.272;2023-11-19T06:24:24;3.20;;;1.93;;
50281;SDS011;36176;51.506;10.272;2023-11-19T06:26:51;1.67;;;1.57;;
50281;SDS011;36176;51.506;10.272;2023-11-19T06:29:18;3.00;;;2.23;;
50281;SDS011;36176;51.506;10.272;2023-11-19T06:31:45;1.60;;;1.50;;
50281;SDS011;36176;51.506;10.272;2023-11-19T06:34:13;2.10;;;1.90;;
50281;SDS011;36176;51.506;10.272;2023-11-19T06:36:40;2.20;;;1.60;;
50281;SDS011;36176;51.506;10.272;2023-11-19T06:39:07;2.20;;;1.80;;
50281;SDS011;36176;51.506;10.272;2023-11-19T06:41:34;2.07;;;1.80;;
50281;SDS011;36176;51.506;10.272;2023-11-19T06:44:01;2.60;;;2.30;;
50281;SDS011;36176;51.506;10.272;2023-11-19T06:46:28;2.67;;;2.10;;
50281;SDS011;36176;51.506;10.272;2023-11-19T06:48:55;3.40;;;2.33;;
50281;SDS011;36176;51.506;10.272;2023-11-19T06:51:23;6.17;;;3.50;;
50281;SDS011;36176;51.506;10.272;2023-11-19T06:53:50;4.70;;;2.40;;
50281;SDS011;36176;51.506;10.272;2023-11-19T07:55:07;4.10;;;2.67;;
50281;SDS011;36176;51.506;10.272;2023-11-19T07:57:34;5.50;;;3.73;;
50281;SDS011;36176;51.506;10.272;2023-11-19T08:00:02;3.87;;;2.73;;
50281;SDS011;36176;51.506;10.272;2023-11-19T08:02:29;4.13;;;3.30;;
50281;SDS011;36176;51.506;10.272;2023-11-19T08:04:57;4.57;;;2.80;;
50281;SDS011;36176;51.506;10.272;2023-11-19T08:07:25;7.37;;;3.83;;
50281;SDS011;36176;51.506;10.272;2023-11-19T08:09:53;3.27;;;2.80;;
50281;SDS011;36176;51.506;10.272;2023-11-19T08:12:20;7.50;;;4.53;;
50281;SDS011;36176;51.506;10.272;2023-11-19T08:14:48;6.37;;;4.20;;
50281;SDS011;36176;51.506;10.272;2023-11-19T08:17:16;8.90;;;6.20;;
50281;SDS011;36176;51.506;10.272;2023-11-19T08:19:46;5.17;;;4.37;;
50281;SDS011;36176;51.506;10.272;2023-11-19T08:22:13;5.30;;;3.17;;
50281;SDS011;36176;51.506;10.272;2023-11-19T08:24:42;4.53;;;3.20;;
50281;SDS011;36176;51.506;10.272;2023-11-19T08:27:09;7.77;;;3.10;;
50281;SDS011;36176;51.506;10.272;2023-11-19T08:29:36;8.50;;;4.10;;
50281;SDS011;36176;51.506;10.272;2023-11-19T08:32:04;5.47;;;3.30;;
50281;SDS011;36176;51.506;10.272;2023-11-19T08:34:31;5.80;;;4.90;;
50281;SDS011;36176;51.506;10.272;2023-11-19T08:36:59;11.33;;;7.70;;
50281;SDS011;36176;51.506;10.272;2023-11-19T08:39:26;11.73;;;8.67;;
50281;SDS011;36176;51.506;10.272;2023-11-19T08:41:53;10.10;;;8.40;;
50281;SDS011;36176;51.506;10.272;2023-11-19T08:44:21;13.00;;;7.73;;
50281;SDS011;36176;51.506;10.272;2023-11-19T08:46:48;6.50;;;3.93;;
50281;SDS011;36176;51.506;10.272;2023-11-19T08:49:17;5.17;;;3.33;;
50281;SDS011;36176;51.506;10.272;2023-11-19T08:51:44;9.07;;;3.87;;
50281;SDS011;36176;51.506;10.272;2023-11-19T08:54:11;14.33;;;8.57;;
50281;SDS011;36176;51.506;10.272;2023-11-19T08:56:38;9.87;;;5.77;;
50281;SDS011;36176;51.506;10.272;2023-11-19T08:59:05;6.10;;;3.00;;
50281;SDS011;36176;51.506;10.272;2023-11-19T09:01:32;8.93;;;3.70;;
50281;SDS011;36176;51.506;10.272;2023-11-19T09:04:00;8.37;;;4.23;;
50281;SDS011;36176;51.506;10.272;2023-11-19T09:06:29;10.17;;;3.53;;
50281;SDS011;36176;51.506;10.272;2023-11-19T09:08:56;4.53;;;3.03;;
50281;SDS011;36176;51.506;10.272;2023-11-19T09:11:24;6.90;;;3.37;;
50281;SDS011;36176;51.506;10.272;2023-11-19T09:13:51;6.60;;;3.30;;
50281;SDS011;36176;51.506;10.272;2023-11-19T09:16:18;8.37;;;2.73;;
50281;SDS011;36176;51.506;10.272;2023-11-19T09:18:46;5.07;;;2.70;;
50281;SDS011;36176;51.506;10.272;2023-11-19T09:21:13;7.63;;;2.97;;
50281;SDS011;36176;51.506;10.272;2023-11-19T09:23:40;6.00;;;2.83;;
50281;SDS011;36176;51.506;10.272;2023-11-19T09:26:08;5.77;;;2.83;;
50281;SDS011;36176;51.506;10.272;2023-11-19T09:28:36;6.93;;;2.70;;
50281;SDS011;36176;51.506;10.272;2023-11-19T09:31:12;5.80;;;2.73;;
50281;SDS011;36176;51.506;10.272;2023-11-19T09:33:42;7.43;;;2.80;;
50281;SDS011;36176;51.506;10.272;2023-11-19T09:36:11;5.03;;;2.60;;
50281;SDS011;36176;51.506;10.272;2023-11-19T09:38:40;8.97;;;2.70;;
50281;SDS011;36176;51.506;10.272;2023-11-19T09:41:07;7.07;;;2.77;;
50281;SDS011;36176;51.506;10.272;2023-11-19T09:43:39;8.80;;;2.83;;
50281;SDS011;36176;51.506;10.272;2023-11-19T09:46:07;9.33;;;4.00;;
50281;SDS011;36176;51.506;10.272;2023-11-19T09:48:38;8.10;;;3.93;;
50281;SDS011;36176;51.506;10.272;2023-11-19T09:51:09;8.40;;;4.30;;
50281;SDS011;36176;51.506;10.272;2023-11-19T09:53:39;7.90;;;4.10;;
50281;SDS011;36176;51.506;10.272;2023-11-19T09:56:11;8.17;;;3.70;;
50281;SDS011;36176;51.506;10.272;2023-11-19T09:58:41;8.13;;;5.50;;
50281;SDS011;36176;51.506;10.272;2023-11-19T10:01:09;10.13;;;3.70;;
50281;SDS011;36176;51.506;10.272;2023-11-19T10:03:39;6.40;;;2.90;;
50281;SDS011;36176;51.506;10.272;2023-11-19T10:06:13;10.43;;;3.10;;
50281;SDS011;36176;51.506;10.272;2023-11-19T10:08:42;9.50;;;3.03;;
50281;SDS011;36176;51.506;10.272;2023-11-19T10:11:10;8.50;;;3.20;;
50281;SDS011;36176;51.506;10.272;2023-11-19T10:13:37;11.03;;;3.40;;
50281;SDS011;36176;51.506;10.272;2023-11-19T10:16:08;8.63;;;3.20;;
50281;SDS011;36176;51.506;10.272;2023-11-19T10:18:46;7.70;;;3.23;;
50281;SDS011;36176;51.506;10.272;2023-11-19T10:21:14;9.13;;;3.20;;
50281;SDS011;36176;51.506;10.272;2023-11-19T10:23:56;9.30;;;3.30;;
50281;SDS011;36176;51.506;10.272;2023-11-19T10:26:24;9.60;;;3.00;;
50281;SDS011;36176;51.506;10.272;2023-11-19T10:28:51;9.27;;;3.20;;
50281;SDS011;36176;51.506;10.272;2023-11-19T10:31:19;10.70;;;3.40;;
50281;SDS011;36176;51.506;10.272;2023-11-19T10:33:47;9.77;;;3.70;;
50281;SDS011;36176;51.506;10.272;2023-11-19T10:36:15;11.10;;;3.20;;
50281;SDS011;36176;51.506;10.272;2023-11-19T10:38:51;7.30;;;2.93;;
50281;SDS011;36176;51.506;10.272;2023-11-19T10:41:29;9.93;;;3.47;;
50281;SDS011;36176;51.506;10.272;2023-11-19T10:44:00;13.00;;;3.70;;
50281;SDS011;36176;51.506;10.272;2023-11-19T10:46:41;9.37;;;3.20;;
50281;SDS011;36176;51.506;10.272;2023-11-19T10:49:16;9.07;;;3.50;;
50281;SDS011;36176;51.506;10.272;2023-11-19T10:51:48;9.43;;;3.43;;
50281;SDS011;36176;51.506;10.272;2023-11-19T10:54:18;9.27;;;3.43;;
50281;SDS011;36176;51.506;10.272;2023-11-19T10:56:47;10.67;;;3.20;;
50281;SDS011;36176;51.506;10.272;2023-11-19T10:59:21;11.87;;;3.60;;
50281;SDS011;36176;51.506;10.272;2023-11-19T11:01:54;10.53;;;4.13;;
50281;SDS011;36176;51.506;10.272;2023-11-19T11:04:23;10.17;;;3.50;;
50281;SDS011;36176;51.506;10.272;2023-11-19T11:17:41;10.60;;;3.63;;
50281;SDS011;36176;51.506;10.272;2023-11-19T11:20:12;12.23;;;3.87;;
50281;SDS011;36176;51.506;10.272;2023-11-19T11:22:49;10.47;;;4.03;;
50281;SDS011;36176;51.506;10.272;2023-11-19T11:25:35;10.63;;;4.10;;
50281;SDS011;36176;51.506;10.272;2023-11-19T11:28:26;12.67;;;4.03;;
50281;SDS011;36176;51.506;10.272;2023-11-19T11:36:31;11.97;;;4.20;;
50281;SDS011;36176;51.506;10.272;2023-11-19T11:39:09;10.43;;;3.43;;
50281;SDS011;36176;51.506;10.272;2023-11-19T11:41:36;10.57;;;3.63;;
50281;SDS011;36176;51.506;10.272;2023-11-19T11:44:03;11.93;;;3.67;;
50281;SDS011;36176;51.506;10.272;2023-11-19T11:52:20;12.30;;;3.73;;
50281;SDS011;36176;51.506;10.272;2023-11-19T11:54:49;10.67;;;3.67;;
50281;SDS011;36176;51.506;10.272;2023-11-19T11:57:16;10.93;;;3.67;;
50281;SDS011;36176;51.506;10.272;2023-11-19T11:59:47;11.13;;;3.33;;
50281;SDS011;36176;51.506;10.272;2023-11-19T12:02:17;13.20;;;4.33;;
50281;SDS011;36176;51.506;10.272;2023-11-19T12:04:50;15.87;;;6.27;;
50281;SDS011;36176;51.506;10.272;2023-11-19T12:07:20;10.67;;;3.50;;
50281;SDS011;36176;51.506;10.272;2023-11-19T12:09:52;13.33;;;3.90;;
50281;SDS011;36176;51.506;10.272;2023-11-19T12:12:21;11.77;;;3.80;;
50281;SDS011;36176;51.506;10.272;2023-11-19T12:20:02;13.27;;;3.70;;
50281;SDS011;36176;51.506;10.272;2023-11-19T12:22:31;11.27;;;4.00;;
50281;SDS011;36176;51.506;10.272;2023-11-19T12:24:58;13.77;;;4.37;;
50281;SDS011;36176;51.506;10.272;2023-11-19T12:27:26;13.30;;;4.27;;
50281;SDS011;36176;51.506;10.272;2023-11-19T12:29:53;15.27;;;4.60;;
50281;SDS011;36176;51.506;10.272;2023-11-19T12:32:20;11.43;;;3.77;;
50281;SDS011;36176;51.506;10.272;2023-11-19T12:34:47;14.37;;;4.10;;
50281;SDS011;36176;51.506;10.272;2023-11-19T12:37:15;11.80;;;3.77;;
50281;SDS011;36176;51.506;10.272;2023-11-19T12:39:42;12.07;;;4.20;;
50281;SDS011;36176;51.506;10.272;2023-11-19T12:42:09;10.17;;;3.83;;
50281;SDS011;36176;51.506;10.272;2023-11-19T12:44:37;14.63;;;4.20;;
50281;SDS011;36176;51.506;10.272;2023-11-19T12:47:05;12.47;;;3.80;;
50281;SDS011;36176;51.506;10.272;2023-11-19T12:49:33;13.20;;;3.83;;
50281;SDS011;36176;51.506;10.272;2023-11-19T12:52:01;11.97;;;4.07;;
50281;SDS011;36176;51.506;10.272;2023-11-19T12:54:33;15.17;;;4.17;;
50281;SDS011;36176;51.506;10.272;2023-11-19T12:57:01;14.93;;;4.47;;
50281;SDS011;36176;51.506;10.272;2023-11-19T12:59:29;12.60;;;3.87;;
50281;SDS011;36176;51.506;10.272;2023-11-19T13:01:57;11.30;;;3.73;;
50281;SDS011;36176;51.506;10.272;2023-11-19T13:04:31;12.57;;;3.50;;
50281;SDS011;36176;51.506;10.272;2023-11-19T13:06:58;11.27;;;3.83;;
50281;SDS011;36176;51.506;10.272;2023-11-19T13:09:29;12.13;;;4.13;;
50281;SDS011;36176;51.506;10.272;2023-11-19T13:11:56;11.60;;;4.40;;
50281;SDS011;36176;51.506;10.272;2023-11-19T13:14:23;12.47;;;4.20;;
50281;SDS011;36176;51.506;10.272;2023-11-19T13:17:02;11.37;;;4.30;;
50281;SDS011;36176;51.506;10.272;2023-11-19T13:19:29;12.03;;;4.20;;
50281;SDS011;36176;51.506;10.272;2023-11-19T13:21:56;13.87;;;4.30;;
50281;SDS011;36176;51.506;10.272;2023-11-19T13:24:24;12.97;;;3.97;;
50281;SDS011;36176;51.506;10.272;2023-11-19T13:26:51;13.90;;;4.07;;
50281;SDS011;36176;51.506;10.272;2023-11-19T13:29:18;14.17;;;4.60;;
50281;SDS011;36176;51.506;10.272;2023-11-19T13:31:46;11.90;;;4.07;;
50281;SDS011;36176;51.506;10.272;2023-11-19T13:34:13;14.10;;;5.00;;
50281;SDS011;36176;51.506;10.272;2023-11-19T13:36:40;23.37;;;9.30;;
50281;SDS011;36176;51.506;10.272;2023-11-19T13:39:19;12.47;;;4.67;;
50281;SDS011;36176;51.506;10.272;2023-11-19T13:41:46;15.90;;;5.27;;
50281;SDS011;36176;51.506;10.272;2023-11-19T13:44:13;11.03;;;3.87;;
50281;SDS011;36176;51.506;10.272;2023-11-19T13:46:40;12.83;;;3.90;;
50281;SDS011;36176;51.506;10.272;2023-11-19T13:49:08;15.13;;;4.60;;
50281;SDS011;36176;51.506;10.272;2023-11-19T13:51:35;14.27;;;5.70;;
50281;SDS011;36176;51.506;10.272;2023-11-19T13:54:03;16.60;;;5.60;;
50281;SDS011;36176;51.506;10.272;2023-11-19T13:56:31;12.57;;;4.50;;
50281;SDS011;36176;51.506;10.272;2023-11-19T13:58:58;13.53;;;4.20;;
50281;SDS011;36176;51.506;10.272;2023-11-19T14:01:26;14.13;;;4.33;;
50281;SDS011;36176;51.506;10.272;2023-11-19T14:03:53;14.37;;;4.70;;
50281;SDS011;36176;51.506;10.272;2023-11-19T14:06:21;11.87;;;4.50;;
50281;SDS011;36176;51.506;10.272;2023-11-19T14:08:48;15.83;;;5.60;;
50281;SDS011;36176;51.506;10.272;2023-11-19T14:11:15;13.23;;;5.10;;
50281;SDS011;36176;51.506;10.272;2023-11-19T14:13:42;14.87;;;4.83;;
50281;SDS011;36176;51.506;10.272;2023-11-19T14:16:09;29.60;;;9.27;;
50281;SDS011;36176;51.506;10.272;2023-11-19T14:18:37;11.73;;;4.90;;
50281;SDS011;36176;51.506;10.272;2023-11-19T14:21:05;15.67;;;6.07;;
50281;SDS011;36176;51.506;10.272;2023-11-19T14:23:33;15.17;;;5.10;;
50281;SDS011;36176;51.506;10.272;2023-11-19T14:26:00;20.50;;;9.70;;
50281;SDS011;36176;51.506;10.272;2023-11-19T14:28:27;35.07;;;21.13;;
50281;SDS011;36176;51.506;10.272;2023-11-19T14:30:54;30.33;;;17.80;;
50281;SDS011;36176;51.506;10.272;2023-11-19T14:33:21;49.57;;;32.27;;
50281;SDS011;36176;51.506;10.272;2023-11-19T14:35:48;41.83;;;28.20;;
50281;SDS011;36176;51.506;10.272;2023-11-19T14:38:15;37.20;;;23.83;;
50281;SDS011;36176;51.506;10.272;2023-11-19T14:40:43;21.67;;;13.03;;
50281;SDS011;36176;51.506;10.272;2023-11-19T14:43:10;18.77;;;7.67;;
50281;SDS011;36176;51.506;10.272;2023-11-19T14:45:37;14.13;;;5.30;;
50281;SDS011;36176;51.506;10.272;2023-11-19T14:48:18;12.33;;;5.17;;
50281;SDS011;36176;51.506;10.272;2023-11-19T14:50:45;13.53;;;4.60;;
50281;SDS011;36176;51.506;10.272;2023-11-19T14:53:12;12.33;;;4.20;;
50281;SDS011;36176;51.506;10.272;2023-11-19T14:55:40;16.80;;;4.27;;
50281;SDS011;36176;51.506;10.272;2023-11-19T14:58:07;11.83;;;4.30;;
50281;SDS011;36176;51.506;10.272;2023-11-19T15:00:38;10.20;;;3.67;;
50281;SDS011;36176;51.506;10.272;2023-11-19T15:03:05;10.77;;;4.40;;
50281;SDS011;36176;51.506;10.272;2023-11-19T15:05:33;12.07;;;4.20;;
50281;SDS011;36176;51.506;10.272;2023-11-19T15:08:00;11.87;;;4.83;;
50281;SDS011;36176;51.506;10.272;2023-11-19T15:10:27;12.87;;;5.93;;
50281;SDS011;36176;51.506;10.272;2023-11-19T15:12:54;14.30;;;6.70;;
50281;SDS011;36176;51.506;10.272;2023-11-19T15:15:21;18.30;;;8.50;;
50281;SDS011;36176;51.506;10.272;2023-11-19T15:17:51;13.13;;;5.70;;
50281;SDS011;36176;51.506;10.272;2023-11-19T15:20:19;11.00;;;4.30;;
50281;SDS011;36176;51.506;10.272;2023-11-19T15:22:46;11.30;;;3.60;;
50281;SDS011;36176;51.506;10.272;2023-11-19T15:25:13;10.90;;;3.67;;
50281;SDS011;36176;51.506;10.272;2023-11-19T15:27:41;11.27;;;4.47;;
50281;SDS011;36176;51.506;10.272;2023-11-19T15:30:08;10.50;;;3.60;;
50281;SDS011;36176;51.506;10.272;2023-11-19T15:32:36;12.57;;;4.20;;
50281;SDS011;36176;51.506;10.272;2023-11-19T15:35:03;11.33;;;4.10;;
50281;SDS011;36176;51.506;10.272;2023-11-19T15:37:30;10.10;;;3.30;;
50281;SDS011;36176;51.506;10.272;2023-11-19T15:39:58;9.17;;;3.63;;
50281;SDS011;36176;51.506;10.272;2023-11-19T15:42:25;12.87;;;3.87;;
50281;SDS011;36176;51.506;10.272;2023-11-19T15:44:52;9.40;;;3.87;;
50281;SDS011;36176;51.506;10.272;2023-11-19T15:47:19;11.00;;;3.80;;
50281;SDS011;36176;51.506;10.272;2023-11-19T15:49:47;11.43;;;3.47;;
50281;SDS011;36176;51.506;10.272;2023-11-19T15:52:15;9.40;;;2.90;;
50281;SDS011;36176;51.506;10.272;2023-11-19T15:54:42;11.73;;;3.73;;
50281;SDS011;36176;51.506;10.272;2023-11-19T15:57:09;8.63;;;3.53;;
50281;SDS011;36176;51.506;10.272;2023-11-19T15:59:36;9.50;;;3.33;;
50281;SDS011;36176;51.506;10.272;2023-11-19T16:02:04;8.97;;;3.00;;
50281;SDS011;36176;51.506;10.272;2023-11-19T16:04:31;10.43;;;3.70;;
50281;SDS011;36176;51.506;10.272;2023-11-19T16:06:58;9.77;;;3.23;;
50281;SDS011;36176;51.506;10.272;2023-11-19T16:09:29;10.23;;;3.37;;
50281;SDS011;36176;51.506;10.272;2023-11-19T16:11:56;8.10;;;3.13;;
50281;SDS011;36176;51.506;10.272;2023-11-19T16:14:23;9.10;;;3.70;;
50281;SDS011;36176;51.506;10.272;2023-11-19T16:16:51;8.70;;;3.97;;
50281;SDS011;36176;51.506;10.272;2023-11-19T16:19:18;10.20;;;3.90;;
50281;SDS011;36176;51.506;10.272;2023-11-19T16:21:46;10.27;;;4.43;;
50281;SDS011;36176;51.506;10.272;2023-11-19T16:24:14;10.30;;;3.80;;
50281;SDS011;36176;51.506;10.272;2023-11-19T16:26:42;9.07;;;2.90;;
50281;SDS011;36176;51.506;10.272;2023-11-19T16:29:09;8.30;;;3.30;;
50281;SDS011;36176;51.506;10.272;2023-11-19T16:31:37;10.00;;;3.73;;
50281;SDS011;36176;51.506;10.272;2023-11-19T16:34:04;7.63;;;2.90;;
50281;SDS011;36176;51.506;10.272;2023-11-19T16:36:31;8.97;;;2.90;;
50281;SDS011;36176;51.506;10.272;2023-11-19T16:38:58;8.80;;;2.80;;
50281;SDS011;36176;51.506;10.272;2023-11-19T16:41:28;8.60;;;2.97;;
50281;SDS011;36176;51.506;10.272;2023-11-19T16:44:08;7.87;;;3.23;;
50281;SDS011;36176;51.506;10.272;2023-11-19T16:46:35;9.73;;;3.30;;
50281;SDS011;36176;51.506;10.272;2023-11-19T16:49:03;7.13;;;2.80;;
50281;SDS011;36176;51.506;10.272;2023-11-19T16:51:30;7.10;;;3.03;;
50281;SDS011;36176;51.506;10.272;2023-11-19T16:53:57;9.27;;;2.93;;
50281;SDS011;36176;51.506;10.272;2023-11-19T16:56:25;6.60;;;3.07;;
50281;SDS011;36176;51.506;10.272;2023-11-19T16:58:52;9.07;;;2.70;;
50281;SDS011;36176;51.506;10.272;2023-11-19T17:01:20;9.27;;;2.90;;
50281;SDS011;36176;51.506;10.272;2023-11-19T17:03:47;7.83;;;2.70;;
50281;SDS011;36176;51.506;10.272;2023-11-19T17:06:14;6.97;;;3.00;;
50281;SDS011;36176;51.506;10.272;2023-11-19T17:08:41;6.43;;;2.70;;
50281;SDS011;36176;51.506;10.272;2023-11-19T17:11:08;8.43;;;3.33;;
50281;SDS011;36176;51.506;10.272;2023-11-19T17:13:36;8.00;;;3.20;;
50281;SDS011;36176;51.506;10.272;2023-11-19T17:16:04;11.33;;;3.23;;
50281;SDS011;36176;51.506;10.272;2023-11-19T17:18:33;9.03;;;3.03;;
50281;SDS011;36176;51.506;10.272;2023-11-19T17:21:01;9.07;;;3.77;;
50281;SDS011;36176;51.506;10.272;2023-11-19T17:23:28;8.00;;;3.53;;
50281;SDS011;36176;51.506;10.272;2023-11-19T17:25:56;11.73;;;3.47;;
50281;SDS011;36176;51.506;10.272;2023-11-19T17:28:23;11.27;;;3.70;;
50281;SDS011;36176;51.506;10.272;2023-11-19T17:30:50;11.03;;;3.17;;
50281;SDS011;36176;51.506;10.272;2023-11-19T17:33:17;8.00;;;2.83;;
50281;SDS011;36176;51.506;10.272;2023-11-19T17:35:44;8.67;;;3.50;;
50281;SDS011;36176;51.506;10.272;2023-11-19T17:38:13;7.80;;;3.00;;
50281;SDS011;36176;51.506;10.272;2023-11-19T17:40:43;7.43;;;2.97;;
50281;SDS011;36176;51.506;10.272;2023-11-19T17:43:10;7.80;;;3.03;;
50281;SDS011;36176;51.506;10.272;2023-11-19T17:45:38;10.80;;;3.47;;
50281;SDS011;36176;51.506;10.272;2023-11-19T17:48:05;12.10;;;3.80;;
50281;SDS011;36176;51.506;10.272;2023-11-19T17:50:33;10.20;;;5.20;;
50281;SDS011;36176;51.506;10.272;2023-11-19T17:53:00;11.00;;;5.50;;
50281;SDS011;36176;51.506;10.272;2023-11-19T17:55:27;13.37;;;6.97;;
50281;SDS011;36176;51.506;10.272;2023-11-19T17:57:54;12.40;;;5.20;;
50281;SDS011;36176;51.506;10.272;2023-11-19T18:00:22;11.43;;;6.40;;
50281;SDS011;36176;51.506;10.272;2023-11-19T18:02:50;11.33;;;5.10;;
50281;SDS011;36176;51.506;10.272;2023-11-19T18:05:17;8.67;;;3.47;;
50281;SDS011;36176;51.506;10.272;2023-11-19T18:07:44;7.67;;;3.10;;
50281;SDS011;36176;51.506;10.272;2023-11-19T18:10:11;8.17;;;3.50;;
50281;SDS011;36176;51.506;10.272;2023-11-19T18:12:39;6.77;;;3.30;;
50281;SDS011;36176;51.506;10.272;2023-11-19T18:15:47;9.23;;;3.50;;
50281;SDS011;36176;51.506;10.272;2023-11-19T18:18:17;11.13;;;3.87;;
50281;SDS011;36176;51.506;10.272;2023-11-19T18:20:44;7.07;;;3.37;;
50281;SDS011;36176;51.506;10.272;2023-11-19T19:53:13;8.33;;;4.10;;
50281;SDS011;36176;51.506;10.272;2023-11-19T20:03:34;11.20;;;4.40;;
50281;SDS011;36176;51.506;10.272;2023-11-19T21:07:27;10.30;;;3.60;;
50281;SDS011;36176;51.506;10.272;2023-11-19T21:14:01;10.13;;;3.80;;
50281;SDS011;36176;51.506;10.272;2023-11-19T21:35:02;11.60;;;3.03;;
50281;SDS011;36176;51.506;10.272;2023-11-19T21:37:29;10.53;;;2.97;;
50281;SDS011;36176;51.506;10.272;2023-11-19T21:39:56;10.17;;;3.10;;
50281;SDS011;36176;51.506;10.272;2023-11-19T21:46:40;9.23;;;3.43;;
50281;SDS011;36176;51.506;10.272;2023-11-19T21:49:08;9.53;;;3.63;;
50281;SDS011;36176;51.506;10.272;2023-11-19T22:51:24;6.37;;;2.20;;
50281;SDS011;36176;51.506;10.272;2023-11-19T22:53:52;4.70;;;2.17;;
50281;SDS011;36176;51.506;10.272;2023-11-19T22:56:23;6.47;;;2.30;;
50281;SDS011;36176;51.506;10.272;2023-11-19T22:58:50;4.13;;;1.87;;
50281;SDS011;36176;51.506;10.272;2023-11-19T23:01:19;7.17;;;2.07;;
50281;SDS011;36176;51.506;10.272;2023-11-19T23:03:47;5.03;;;2.03;;
50281;SDS011;36176;51.506;10.272;2023-11-19T23:06:14;4.67;;;1.83;;
50281;SDS011;36176;51.506;10.272;2023-11-19T23:08:42;8.33;;;2.03;;
50281;SDS011;36176;51.506;10.272;2023-11-19T23:11:09;4.30;;;1.60;;
50281;SDS011;36176;51.506;10.272;2023-11-19T23:13:36;4.77;;;1.60;;
50281;SDS011;36176;51.506;10.272;2023-11-19T23:16:04;2.77;;;1.47;;
50281;SDS011;36176;51.506;10.272;2023-11-19T23:18:32;5.80;;;1.70;;
50281;SDS011;36176;51.506;10.272;2023-11-19T23:20:59;4.07;;;1.80;;
50281;SDS011;36176;51.506;10.272;2023-11-19T23:23:26;3.23;;;1.60;;
50281;SDS011;36176;51.506;10.272;2023-11-19T23:25:53;4.77;;;1.60;;
50281;SDS011;36176;51.506;10.272;2023-11-19T23:28:21;4.13;;;1.50;;
50281;SDS011;36176;51.506;10.272;2023-11-19T23:30:48;3.53;;;1.60;;
50281;SDS011;36176;51.506;10.272;2023-11-19T23:33:15;3.90;;;1.47;;
50281;SDS011;36176;51.506;10.272;2023-11-19T23:35:42;4.00;;;1.60;;
50281;SDS011;36176;51.506;10.272;2023-11-19T23:38:09;4.60;;;1.77;;
50281;SDS011;36176;51.506;10.272;2023-11-19T23:40:38;4.10;;;1.60;;
50281;SDS011;36176;51.506;10.272;2023-11-19T23:43:05;2.63;;;1.50;;
50281;SDS011;36176;51.506;10.272;2023-11-19T23:45:32;4.43;;;1.67;;
50281;SDS011;36176;51.506;10.272;2023-11-19T23:48:00;3.63;;;1.50;;
50281;SDS011;36176;51.506;10.272;2023-11-19T23:50:27;4.23;;;1.67;;
50281;SDS011;36176;51.506;10.272;2023-11-19T23:52:54;3.50;;;1.60;;
50281;SDS011;36176;51.506;10.272;2023-11-19T23:55:21;2.63;;;1.47;;
50281;SDS011;36176;51.506;10.272;2023-11-19T23:57:48;4.30;;;1.67;;
